Terminal Aerodrome Forecast
Issued by NWS Portland, OR

Current Version | Previous Version | Text Only | Print | Product List | Glossary On
Versions: 1 2 3 4 5 6 7 8 9 10 11 12
000
FTUS46 KPQR 291743
TAFHIO
TAF
KHIO 291743Z 2918/3018 29004KT P6SM -SHRA SCT025 BKN035 OVC045
     FM292300 30010KT P6SM VCSH BKN035 BKN045
      TEMPO 2923/3003 -SHRA
     FM300400 30007KT P6SM SCT035 BKN045
     FM301000 31004KT P6SM SCT020 BKN040=

USA.gov is the U.S. government's official web portal to all federal, state and local government web resources and services.